createdAt,value
2023-03-17T00:00:33.404Z,3.53
2023-03-17T00:04:34.880Z,4.05
2023-03-17T00:08:37.111Z,7.82
2023-03-17T00:12:38.582Z,8.15
2023-03-17T00:16:43.030Z,3.72
2023-03-17T00:20:46.974Z,4.57
2023-03-17T00:24:48.440Z,6.63
2023-03-17T00:28:51.083Z,3.85
2023-03-17T00:32:55.989Z,6.05
2023-03-17T00:36:57.491Z,5.60
2023-03-17T00:40:59.308Z,6.03
2023-03-17T00:45:01.322Z,7.65
2023-03-17T00:53:21.537Z,5.43
2023-03-17T00:57:23.589Z,4.53
2023-03-17T01:01:25.095Z,6.47
2023-03-17T01:05:26.539Z,8.52
2023-03-17T01:09:29.212Z,8.55
2023-03-17T01:13:30.892Z,7.07
2023-03-17T01:17:32.487Z,8.68
2023-03-17T01:21:33.950Z,9.70
2023-03-17T01:25:37.348Z,8.98
2023-03-17T01:29:39.341Z,9.73
2023-03-17T01:33:41.381Z,8.73
2023-03-17T01:37:43.446Z,5.55
2023-03-17T01:41:45.494Z,7.43
2023-03-17T01:46:25.100Z,7.88
2023-03-17T01:50:26.674Z,8.63
2023-03-17T01:54:50.337Z,7.68
2023-03-17T01:58:54.824Z,6.32
2023-03-17T02:02:57.350Z,5.05
2023-03-17T02:07:00.333Z,6.95
2023-03-17T02:11:03.443Z,8.10
2023-03-17T02:15:05.842Z,9.13
2023-03-17T02:19:07.960Z,7.88
2023-03-17T02:23:10.627Z,9.48
2023-03-17T02:27:17.986Z,9.02
2023-03-17T02:31:20.451Z,5.63
2023-03-17T02:35:22.332Z,7.20
2023-03-17T02:39:24.763Z,7.30
2023-03-17T02:43:26.380Z,7.70
2023-03-17T02:47:28.194Z,7.40
2023-03-17T02:51:29.741Z,5.97
2023-03-17T02:55:32.113Z,9.57
2023-03-17T02:59:33.609Z,7.10
2023-03-17T03:03:36.239Z,5.97
2023-03-17T03:07:37.690Z,11.00
2023-03-17T03:11:40.042Z,10.32
2023-03-17T03:15:43.289Z,6.28
2023-03-17T03:19:44.921Z,5.65
2023-03-17T03:23:46.366Z,6.68
2023-03-17T03:27:47.832Z,14.95
2023-03-17T03:31:49.362Z,8.98
2023-03-17T03:35:50.875Z,6.78
2023-03-17T03:39:52.394Z,6.50
2023-03-17T03:43:53.857Z,7.78
2023-03-17T03:47:56.159Z,9.32
2023-03-17T03:51:57.661Z,7.90
2023-03-17T03:55:59.111Z,6.68
2023-03-17T04:00:01.121Z,6.40
2023-03-17T04:04:02.731Z,7.00
2023-03-17T04:08:04.358Z,10.63
2023-03-17T04:12:06.861Z,7.00
2023-03-17T04:16:08.444Z,4.28
2023-03-17T04:20:12.072Z,6.10
2023-03-17T04:24:14.749Z,9.20
2023-03-17T04:28:16.378Z,8.90
2023-03-17T04:32:18.036Z,5.38
2023-03-17T04:36:23.889Z,10.40
2023-03-17T04:40:26.504Z,6.88
2023-03-17T04:44:28.033Z,10.80
2023-03-17T04:48:29.511Z,6.60
2023-03-17T04:52:31.186Z,6.78
2023-03-17T04:56:32.729Z,8.35
2023-03-17T05:00:38.653Z,7.80
2023-03-17T05:04:40.145Z,4.50
2023-03-17T05:08:44.737Z,8.52
2023-03-17T05:12:46.302Z,7.60
2023-03-17T05:16:48.577Z,9.95
2023-03-17T05:20:50.252Z,6.70
2023-03-17T05:24:51.693Z,8.05
2023-03-17T05:28:53.366Z,9.65
2023-03-17T05:32:54.888Z,5.20
2023-03-17T05:36:56.394Z,6.70
2023-03-17T05:40:57.844Z,7.22
2023-03-17T05:45:00.006Z,6.78
2023-03-17T05:49:01.626Z,7.43
2023-03-17T05:53:03.242Z,4.95
2023-03-17T05:57:04.747Z,5.45
2023-03-17T06:01:06.336Z,7.47
2023-03-17T06:05:08.825Z,7.25
2023-03-17T06:09:10.264Z,8.40
2023-03-17T06:13:11.712Z,5.85
2023-03-17T06:17:13.268Z,7.70
2023-03-17T06:21:14.777Z,6.80
2023-03-17T06:25:16.372Z,5.82
2023-03-17T06:29:17.852Z,8.13
2023-03-17T06:33:19.442Z,6.28
2023-03-17T06:37:21.411Z,8.20
2023-03-17T06:41:22.851Z,7.68
2023-03-17T06:45:24.428Z,5.43
2023-03-17T06:49:26.376Z,7.45
2023-03-17T06:53:27.913Z,5.22
2023-03-17T06:57:29.345Z,4.93
2023-03-17T07:01:30.951Z,5.18
2023-03-17T07:05:33.689Z,3.70
2023-03-17T07:09:35.423Z,7.10
2023-03-17T07:13:38.778Z,6.30
2023-03-17T07:17:40.310Z,9.85
2023-03-17T07:21:42.040Z,5.78
2023-03-17T07:25:44.522Z,4.57
2023-03-17T07:29:46.658Z,6.93
2023-03-17T07:33:48.110Z,5.30
2023-03-17T07:37:49.693Z,5.38
2023-03-17T07:41:55.053Z,6.00
2023-03-17T07:45:57.088Z,7.45
2023-03-17T07:49:58.567Z,3.70
2023-03-17T07:54:03.885Z,4.43
2023-03-17T07:58:06.319Z,6.65
2023-03-17T08:02:10.581Z,6.93
2023-03-17T08:06:12.224Z,8.07
2023-03-17T08:10:13.854Z,6.70
2023-03-17T08:14:15.531Z,6.32
2023-03-17T08:18:18.179Z,8.68
2023-03-17T08:22:19.725Z,8.55
2023-03-17T08:26:21.795Z,5.55
2023-03-17T08:30:23.288Z,8.48
2023-03-17T08:34:26.113Z,11.35
2023-03-17T08:38:28.308Z,7.15
2023-03-17T08:42:29.768Z,6.28
2023-03-17T08:46:32.591Z,8.40
2023-03-17T08:50:34.711Z,5.38
2023-03-17T08:54:36.633Z,6.35
2023-03-17T08:58:42.609Z,6.57
2023-03-17T09:02:44.987Z,5.82
2023-03-17T09:07:02.250Z,7.75
2023-03-17T09:11:05.787Z,5.15
2023-03-17T09:15:07.934Z,6.53
2023-03-17T09:19:09.453Z,6.18
2023-03-17T09:23:11.640Z,6.90
2023-03-17T09:27:13.622Z,5.22
2023-03-17T09:31:15.614Z,6.28
2023-03-17T09:35:17.201Z,5.03
2023-03-17T09:39:18.919Z,5.47
2023-03-17T09:43:32.293Z,5.30
2023-03-17T09:47:42.213Z,5.72
2023-03-17T09:51:46.300Z,5.22
2023-03-17T09:55:54.755Z,7.15
2023-03-17T10:00:07.864Z,5.18
2023-03-17T10:04:11.836Z,4.70
2023-03-17T10:08:31.698Z,6.57
2023-03-17T10:12:36.756Z,4.32
2023-03-17T10:16:38.338Z,6.10
2023-03-17T10:20:51.548Z,3.35
2023-03-17T10:25:02.354Z,3.92
2023-03-17T10:29:12.418Z,4.53
2023-03-17T10:33:13.955Z,7.53
2023-03-17T10:37:18.847Z,6.03
2023-03-17T10:41:20.428Z,5.75
2023-03-17T10:45:30.808Z,10.07
2023-03-17T10:49:36.984Z,3.72
2023-03-17T10:53:43.329Z,4.22
2023-03-17T10:58:08.009Z,4.32
2023-03-17T11:02:30.380Z,4.85
2023-03-17T11:06:43.389Z,5.97
2023-03-17T11:10:45.261Z,5.90
2023-03-17T11:14:48.362Z,5.03
2023-03-17T11:18:57.974Z,3.60
2023-03-17T11:27:38.928Z,4.88
2023-03-17T11:31:52.916Z,4.20
2023-03-17T11:36:33.449Z,3.88
2023-03-17T11:40:54.992Z,3.83
2023-03-17T11:45:03.773Z,4.30
2023-03-17T11:49:22.808Z,4.10
2023-03-17T11:53:33.140Z,3.72
2023-03-17T11:58:03.006Z,6.07
2023-03-17T12:02:38.749Z,3.83
2023-03-17T12:06:50.637Z,3.42
2023-03-17T12:10:59.832Z,4.20
2023-03-17T12:15:05.208Z,7.97
2023-03-17T12:19:19.364Z,6.40
2023-03-17T12:23:40.189Z,3.45
2023-03-17T12:28:01.647Z,6.32
2023-03-17T12:32:14.525Z,4.80
2023-03-17T12:36:17.537Z,5.07
2023-03-17T12:40:33.040Z,4.50
2023-03-17T12:44:54.059Z,4.25
2023-03-17T12:49:08.220Z,7.20
2023-03-17T12:53:19.218Z,3.60
2023-03-17T12:57:30.948Z,7.63
2023-03-17T13:01:42.912Z,4.60
2023-03-17T13:05:52.699Z,6.15
2023-03-17T13:09:54.087Z,7.88
2023-03-17T13:14:06.269Z,3.97
2023-03-17T13:18:27.457Z,4.88
2023-03-17T13:22:39.274Z,6.40
2023-03-17T13:27:11.094Z,6.10
2023-03-17T13:31:16.281Z,5.35
2023-03-17T13:35:20.148Z,4.53
2023-03-17T13:39:49.452Z,5.20
2023-03-17T13:44:12.881Z,2.95
2023-03-17T13:48:37.888Z,3.42
2023-03-17T13:52:42.013Z,5.53
2023-03-17T13:56:43.709Z,3.53
2023-03-17T14:00:47.430Z,2.25
2023-03-17T14:04:55.659Z,2.75
2023-03-17T14:09:11.991Z,4.90
2023-03-17T14:13:22.438Z,3.60
2023-03-17T14:17:32.072Z,4.22
2023-03-17T14:25:39.816Z,4.25
2023-03-17T14:29:41.286Z,4.60
2023-03-17T14:33:42.976Z,5.50
2023-03-17T14:37:45.143Z,3.90
2023-03-17T14:41:46.576Z,4.65
2023-03-17T14:45:48.200Z,2.50
2023-03-17T14:49:53.078Z,7.25
2023-03-17T14:54:00.094Z,4.53
2023-03-17T14:58:09.018Z,4.43
2023-03-17T15:02:22.317Z,2.30
2023-03-17T15:06:26.412Z,2.53
2023-03-17T15:10:34.296Z,4.43
2023-03-17T15:14:39.944Z,3.58
2023-03-17T15:18:41.420Z,4.45
2023-03-17T15:22:48.545Z,4.05
2023-03-17T15:26:50.162Z,3.10
2023-03-17T15:30:54.120Z,3.60
2023-03-17T15:34:59.331Z,2.90
2023-03-17T15:39:03.289Z,5.43
2023-03-17T15:43:04.746Z,4.70
2023-03-17T15:47:06.395Z,4.05
2023-03-17T15:51:08.397Z,3.10
2023-03-17T15:55:25.550Z,3.75
2023-03-17T15:59:26.964Z,4.93
2023-03-17T16:03:34.879Z,3.95
2023-03-17T16:07:36.403Z,4.07
2023-03-17T16:11:40.019Z,3.75
2023-03-17T16:15:43.986Z,5.20
2023-03-17T16:19:45.751Z,4.35
2023-03-17T16:23:48.399Z,3.30
2023-03-17T16:27:49.916Z,5.70
2023-03-17T16:31:51.480Z,4.15
2023-03-17T16:35:55.453Z,4.85
2023-03-17T16:39:57.261Z,4.72
2023-03-17T16:44:02.693Z,4.50
2023-03-17T16:48:04.951Z,5.82
2023-03-17T16:52:06.444Z,3.30
2023-03-17T16:56:18.030Z,5.60
2023-03-17T17:00:25.989Z,4.70
2023-03-17T17:04:27.511Z,3.10
2023-03-17T17:08:29.008Z,6.25
2023-03-17T17:12:30.467Z,2.30
2023-03-17T17:16:35.977Z,3.50
2023-03-17T17:20:39.516Z,2.65
2023-03-17T17:24:41.244Z,2.72
2023-03-17T17:28:42.778Z,3.63
2023-03-17T17:32:45.246Z,4.80
2023-03-17T17:36:46.795Z,3.65
2023-03-17T17:40:49.396Z,4.05
2023-03-17T17:44:51.169Z,6.63
2023-03-17T17:48:52.729Z,5.68
2023-03-17T17:52:54.897Z,4.45
2023-03-17T17:56:56.472Z,5.82
2023-03-17T18:00:58.368Z,5.60
2023-03-17T18:05:00.808Z,7.30
2023-03-17T18:09:02.380Z,2.90
2023-03-17T18:13:03.865Z,4.00
2023-03-17T18:17:05.395Z,8.35
2023-03-17T18:21:06.857Z,5.63
2023-03-17T18:25:10.202Z,6.75
2023-03-17T18:29:12.260Z,6.72
2023-03-17T18:33:17.988Z,7.47
2023-03-17T18:37:19.472Z,4.05
2023-03-17T18:41:20.971Z,5.57
2023-03-17T18:45:22.831Z,5.90
2023-03-17T18:49:27.014Z,6.68
2023-03-17T18:53:30.709Z,4.63
2023-03-17T18:57:32.926Z,6.90
2023-03-17T19:01:34.504Z,5.05
2023-03-17T19:05:38.390Z,12.15
2023-03-17T19:09:40.170Z,5.97
2023-03-17T19:13:42.560Z,7.10
2023-03-17T19:17:44.044Z,5.57
2023-03-17T19:21:46.139Z,6.20
2023-03-17T19:25:47.999Z,5.47
2023-03-17T19:29:49.511Z,6.38
2023-03-17T19:33:51.681Z,12.00
2023-03-17T19:37:53.198Z,7.13
2023-03-17T19:41:55.124Z,6.00
2023-03-17T19:45:56.994Z,6.00
2023-03-17T19:49:58.503Z,7.38
2023-03-17T19:54:00.593Z,7.40
2023-03-17T19:58:04.032Z,7.00
2023-03-17T20:02:06.537Z,6.15
2023-03-17T20:06:14.531Z,9.05
2023-03-17T20:10:16.127Z,7.63
2023-03-17T20:14:17.734Z,8.02
2023-03-17T20:18:19.778Z,6.03
2023-03-17T20:22:21.259Z,6.75
2023-03-17T20:26:23.186Z,8.52
2023-03-17T20:30:24.681Z,6.88
2023-03-17T20:34:26.208Z,8.48
2023-03-17T20:38:27.906Z,7.95
2023-03-17T20:42:29.417Z,8.57
2023-03-17T20:46:31.186Z,8.43
2023-03-17T20:50:34.301Z,9.25
2023-03-17T20:54:35.913Z,12.90
2023-03-17T20:58:37.428Z,8.98
2023-03-17T21:02:39.304Z,9.43
2023-03-17T21:06:41.896Z,9.18
2023-03-17T21:10:43.377Z,11.68
2023-03-17T21:14:48.186Z,10.75
2023-03-17T21:18:49.674Z,12.63
2023-03-17T21:22:51.544Z,10.45
2023-03-17T21:26:53.399Z,11.98
2023-03-17T21:30:54.954Z,9.73
2023-03-17T21:34:56.498Z,8.65
2023-03-17T21:38:57.997Z,9.07
2023-03-17T21:43:00.760Z,10.85
2023-03-17T21:47:03.048Z,11.05
2023-03-17T21:51:04.696Z,9.30
2023-03-17T21:55:07.521Z,9.57
2023-03-17T21:59:11.139Z,8.95
2023-03-17T22:03:12.888Z,12.85
2023-03-17T22:07:16.466Z,8.50
2023-03-17T22:11:19.536Z,11.65
2023-03-17T22:15:21.595Z,8.68
2023-03-17T22:19:23.823Z,6.70
2023-03-17T22:23:26.632Z,9.32
2023-03-17T22:27:28.192Z,9.35
2023-03-17T22:31:30.038Z,9.80
2023-03-17T22:35:32.046Z,9.40
2023-03-17T22:39:34.612Z,11.07
2023-03-17T22:43:36.731Z,8.80
2023-03-17T22:47:38.231Z,14.07
2023-03-17T22:51:41.245Z,11.68
2023-03-17T22:55:43.442Z,13.70
2023-03-17T22:59:45.135Z,11.57
2023-03-17T23:03:47.075Z,13.77
2023-03-17T23:07:50.769Z,10.05
2023-03-17T23:11:52.708Z,9.07
2023-03-17T23:15:54.602Z,7.03
2023-03-17T23:19:56.350Z,10.93
2023-03-17T23:23:58.653Z,10.18
2023-03-17T23:28:00.779Z,9.65
2023-03-17T23:32:02.353Z,6.70
2023-03-17T23:36:06.610Z,11.75
2023-03-17T23:40:13.883Z,10.35
2023-03-17T23:44:16.279Z,10.55
2023-03-17T23:48:17.818Z,9.88
2023-03-17T23:52:21.146Z,9.45
2023-03-17T23:56:22.595Z,9.55
